Terminal Aerodrome Forecast
Issued by NWS

Home | Current Version | Previous Version | Text Only | Print | Product List | Glossary On
Versions: 1 2 3 4 5 6 7 8 9 10 11 12 13 14 15 16 17 18 19
000
FTUS43 KPAH 171100
TAFCGI
TAF
KCGI 171120Z 1712/1812 23004KT P6SM SCT200
     FM171400 28008KT P6SM SCT200
     FM171800 30011G18KT P6SM FEW200
     FM180100 32005KT P6SM FEW200=

USA.gov is the U.S. government's official web portal to all federal, state and local government web resources and services.